Time,TemperatureF,DewpointF,PressureIn,WindDirection,WindDirectionDegrees,WindSpeedMPH,WindSpeedGustMPH,Humidity,HourlyPrecipIn,Conditions,Clouds,dailyrainin,SoftwareType,DateUTC
2016-02-05 00:00:00,45.1,45.1,30.19,West,270,0.0,0.0,100,0.00,,,0.00,WeatherDisplay:10.33,2016-02-05 08:00:00,
2016-02-05 00:15:00,45.2,45.2,30.19,West,270,0.0,0.0,100,0.00,,,0.00,WeatherDisplay:10.33,2016-02-05 08:15:00,
2016-02-05 00:30:00,45.1,45.1,30.19,West,270,0.0,0.0,100,0.00,,,0.00,WeatherDisplay:10.33,2016-02-05 08:30:00,
2016-02-05 00:45:00,44.9,44.9,30.19,West,270,0.0,0.0,100,0.00,,,0.00,WeatherDisplay:10.33,2016-02-05 08:45:00,
2016-02-05 01:15:00,44.1,44.1,30.19,West,270,0.0,0.0,100,0.00,,,0.00,WeatherDisplay:10.33,2016-02-05 09:15:00,
2016-02-05 01:30:00,43.9,43.9,30.19,West,270,0.0,0.0,100,0.00,,,0.00,WeatherDisplay:10.33,2016-02-05 09:30:00,
2016-02-05 01:45:00,44.3,44.3,30.19,West,270,0.0,0.0,100,0.00,,,0.00,WeatherDisplay:10.33,2016-02-05 09:45:00,
2016-02-05 02:00:00,44.1,44.1,30.19,West,270,0.0,0.0,100,0.00,,,0.00,WeatherDisplay:10.33,2016-02-05 10:00:00,
2016-02-05 02:15:00,43.2,43.2,30.19,West,270,0.0,0.0,100,0.00,,,0.00,WeatherDisplay:10.33,2016-02-05 10:15:00,
2016-02-05 02:30:00,42.8,42.8,30.19,West,270,0.0,1.0,100,0.00,,,0.00,WeatherDisplay:10.33,2016-02-05 10:30:00,
2016-02-05 02:45:00,43.1,43.1,30.19,West,270,0.0,0.0,100,0.00,,,0.00,WeatherDisplay:10.33,2016-02-05 10:45:00,
2016-02-05 03:00:00,43.5,43.5,30.19,West,270,0.0,0.0,100,0.00,,,0.00,WeatherDisplay:10.33,2016-02-05 11:00:00,
2016-02-05 03:15:00,42.8,42.8,30.19,West,270,0.0,0.0,100,0.00,,,0.00,WeatherDisplay:10.33,2016-02-05 11:15:00,
2016-02-05 03:30:00,42.5,42.5,30.19,West,270,0.0,0.0,100,0.00,,,0.00,WeatherDisplay:10.33,2016-02-05 11:30:00,
2016-02-05 03:45:00,41.8,41.8,30.19,West,270,0.0,0.0,100,0.00,,,0.00,WeatherDisplay:10.33,2016-02-05 11:45:00,
2016-02-05 04:00:00,41.2,41.2,30.19,West,270,0.0,0.0,100,0.00,,,0.00,WeatherDisplay:10.33,2016-02-05 12:00:00,
2016-02-05 04:15:00,40.8,40.8,30.19,West,270,0.0,0.0,100,0.00,,,0.00,WeatherDisplay:10.33,2016-02-05 12:15:00,
2016-02-05 04:30:00,40.9,40.9,30.19,West,270,0.0,0.0,100,0.00,,,0.00,WeatherDisplay:10.33,2016-02-05 12:30:00,
2016-02-05 04:45:00,40.8,40.8,30.20,West,270,0.0,0.0,100,0.00,,,0.00,WeatherDisplay:10.33,2016-02-05 12:45:00,
2016-02-05 05:00:00,41.2,41.2,30.21,West,270,0.0,0.0,100,0.00,,,0.00,WeatherDisplay:10.33,2016-02-05 13:00:00,
2016-02-05 05:15:00,40.8,40.8,30.21,West,270,0.0,0.0,100,0.00,,,0.00,WeatherDisplay:10.33,2016-02-05 13:15:00,
2016-02-05 05:30:00,40.2,40.2,30.22,West,270,0.0,0.0,100,0.00,,,0.00,WeatherDisplay:10.33,2016-02-05 13:30:00,
2016-02-05 05:45:00,40.2,40.2,30.23,West,270,0.0,0.0,100,0.00,,,0.00,WeatherDisplay:10.33,2016-02-05 13:45:00,
2016-02-05 06:00:00,40.6,40.6,30.23,West,270,0.0,0.0,100,0.00,OVC,OVC,0.00,WeatherDisplay:10.33,2016-02-05 14:00:00,
2016-02-05 06:15:00,40.1,40.1,30.24,West,270,0.0,0.0,100,0.00,OVC,OVC,0.00,WeatherDisplay:10.33,2016-02-05 14:15:00,
2016-02-05 07:15:00,40.2,40.2,30.26,West,270,0.0,0.0,100,0.00,OVC,OVC,0.00,WeatherDisplay:10.33,2016-02-05 15:15:00,
2016-02-05 07:30:00,40.7,40.7,30.26,West,270,0.0,0.0,100,0.00,CLR,CLR,0.00,WeatherDisplay:10.33,2016-02-05 15:30:00,
2016-02-05 07:45:00,43.3,43.3,30.26,West,270,0.0,0.0,100,0.00,CLR,CLR,0.00,WeatherDisplay:10.33,2016-02-05 15:45:00,
2016-02-05 08:00:00,47.2,47.2,30.25,West,270,0.0,0.0,100,0.00,CLR,CLR,0.00,WeatherDisplay:10.33,2016-02-05 16:00:00,
2016-02-05 08:15:00,48.3,48.3,30.25,West,270,0.0,0.0,100,0.00,CLR,CLR,0.00,WeatherDisplay:10.33,2016-02-05 16:15:00,
2016-02-05 08:30:00,49.9,49.9,30.26,WNW,292,0.0,3.0,100,0.00,CLR,CLR,0.00,WeatherDisplay:10.33,2016-02-05 16:30:00,
2016-02-05 08:45:00,52.1,52.1,30.26,WNW,292,0.0,0.0,100,0.00,CLR,CLR,0.00,WeatherDisplay:10.33,2016-02-05 16:45:00,
2016-02-05 09:00:00,53.2,53.2,30.26,WNW,292,0.0,0.0,100,0.00,CLR,CLR,0.00,WeatherDisplay:10.33,2016-02-05 17:00:00,
2016-02-05 09:15:00,57.6,57.6,30.25,WNW,292,0.0,0.0,100,0.00,CLR,CLR,0.00,WeatherDisplay:10.33,2016-02-05 17:15:00,
2016-02-05 09:30:00,61.3,61.3,30.25,WNW,292,0.0,0.0,100,0.00,CLR,CLR,0.00,WeatherDisplay:10.33,2016-02-05 17:30:00,
2016-02-05 09:45:00,63.2,63.2,30.25,WNW,292,0.0,0.0,100,0.00,CLR,CLR,0.00,WeatherDisplay:10.33,2016-02-05 17:45:00,
2016-02-05 10:00:00,64.3,64.3,30.24,WNW,292,0.0,0.0,100,0.00,CLR,CLR,0.00,WeatherDisplay:10.33,2016-02-05 18:00:00,
2016-02-05 10:15:00,66.1,66.1,30.24,WNW,292,0.0,0.0,100,0.00,OVC,OVC,0.00,WeatherDisplay:10.33,2016-02-05 18:15:00,
2016-02-05 10:30:00,67.1,67.1,30.23,WNW,292,0.0,0.0,100,0.00,OVC,OVC,0.00,WeatherDisplay:10.33,2016-02-05 18:30:00,
2016-02-05 10:45:00,68.3,68.3,30.23,WNW,292,0.0,1.0,100,0.00,OVC,OVC,0.00,WeatherDisplay:10.33,2016-02-05 18:45:00,
2016-02-05 11:15:00,71.9,71.9,30.21,WNW,292,0.0,3.0,100,0.00,CLR,CLR,0.00,WeatherDisplay:10.33,2016-02-05 19:15:00,
2016-02-05 11:30:00,73.7,73.7,30.20,WNW,283,1.0,3.0,100,0.00,CLR,CLR,0.00,WeatherDisplay:10.33,2016-02-05 19:30:00,
2016-02-05 11:45:00,73.9,73.9,30.19,SW,230,2.0,6.0,100,0.00,CLR,CLR,0.00,WeatherDisplay:10.33,2016-02-05 19:45:00,
2016-02-05 12:00:00,74.4,74.4,30.18,SW,225,2.0,7.0,100,0.00,CLR,CLR,0.00,WeatherDisplay:10.33,2016-02-05 20:00:00,
2016-02-05 12:15:00,73.9,73.9,30.17,SW,219,6.0,12.0,100,0.00,CLR,CLR,0.00,WeatherDisplay:10.33,2016-02-05 20:15:00,
2016-02-05 12:30:00,73.9,73.9,30.16,SW,225,5.0,10.0,100,0.00,CLR,CLR,0.00,WeatherDisplay:10.33,2016-02-05 20:30:00,
2016-02-05 12:45:00,74.4,74.4,30.16,SW,235,3.0,10.0,100,0.00,CLR,CLR,0.00,WeatherDisplay:10.33,2016-02-05 20:45:00,
2016-02-05 13:00:00,73.7,73.7,30.15,SSW,212,3.0,12.0,100,0.00,CLR,CLR,0.00,WeatherDisplay:10.33,2016-02-05 21:00:00,
2016-02-05 13:15:00,74.9,74.9,30.15,WSW,237,2.0,6.0,100,0.00,CLR,CLR,0.00,WeatherDisplay:10.33,2016-02-05 21:15:00,
2016-02-05 13:30:00,76.0,76.0,30.14,WSW,258,0.0,5.0,100,0.00,CLR,CLR,0.00,WeatherDisplay:10.33,2016-02-05 21:30:00,
2016-02-05 13:45:00,76.2,76.2,30.13,WNW,293,0.0,6.0,100,0.00,CLR,CLR,0.00,WeatherDisplay:10.33,2016-02-05 21:45:00,
2016-02-05 14:00:00,77.2,77.2,30.13,WSW,249,3.0,7.0,100,0.00,CLR,CLR,0.00,WeatherDisplay:10.33,2016-02-05 22:00:00,
2016-02-05 14:15:00,76.8,76.8,30.13,WSW,248,1.0,12.0,100,0.00,CLR,CLR,0.00,WeatherDisplay:10.33,2016-02-05 22:15:00,
2016-02-05 14:30:00,76.7,76.7,30.13,WSW,241,5.0,10.0,100,0.00,CLR,CLR,0.00,WeatherDisplay:10.33,2016-02-05 22:30:00,
2016-02-05 14:45:00,77.0,77.0,30.13,SW,217,2.0,8.0,100,0.00,CLR,CLR,0.00,WeatherDisplay:10.33,2016-02-05 22:45:00,
2016-02-05 15:00:00,77.7,77.7,30.13,SW,218,5.0,7.0,100,0.00,CLR,CLR,0.00,WeatherDisplay:10.33,2016-02-05 23:00:00,
2016-02-05 15:15:00,77.3,77.3,30.12,SSW,208,0.0,7.0,100,0.00,CLR,CLR,0.00,WeatherDisplay:10.33,2016-02-05 23:15:00,
2016-02-05 15:30:00,77.2,77.2,30.13,SSW,208,2.0,7.0,100,0.00,CLR,CLR,0.00,WeatherDisplay:10.33,2016-02-05 23:30:00,
2016-02-05 15:45:00,76.7,76.7,30.13,SSW,212,2.0,7.0,100,0.00,CLR,CLR,0.00,WeatherDisplay:10.33,2016-02-05 23:45:00,
2016-02-05 16:00:00,76.8,76.8,30.13,SW,215,0.0,5.0,100,0.00,CLR,CLR,0.00,WeatherDisplay:10.33,2016-02-06 00:00:00,
2016-02-05 16:15:00,77.6,77.6,30.13,South,189,0.0,7.0,100,0.00,CLR,CLR,0.00,WeatherDisplay:10.33,2016-02-06 00:15:00,
2016-02-05 16:30:00,77.4,77.4,30.13,SSW,202,0.0,1.0,100,0.00,CLR,CLR,0.00,WeatherDisplay:10.33,2016-02-06 00:30:00,
2016-02-05 16:45:00,77.2,77.2,30.14,SSE,154,0.0,3.0,100,0.00,CLR,CLR,0.00,WeatherDisplay:10.33,2016-02-06 00:45:00,
2016-02-05 17:00:00,75.4,75.4,30.15,SSE,155,0.0,1.0,100,0.00,SCT,SCT,0.00,WeatherDisplay:10.33,2016-02-06 01:00:00,
2016-02-05 17:15:00,73.9,73.9,30.16,South,180,0.0,3.0,100,0.00,SCT,SCT,0.00,WeatherDisplay:10.33,2016-02-06 01:15:00,
2016-02-05 17:30:00,71.8,71.8,30.16,East,90,0.0,3.0,100,0.00,OVC,OVC,0.00,WeatherDisplay:10.33,2016-02-06 01:30:00,
2016-02-05 17:45:00,69.3,69.3,30.17,East,90,0.0,0.0,100,0.00,OVC,OVC,0.00,WeatherDisplay:10.33,2016-02-06 01:45:00,
2016-02-05 18:00:00,67.9,67.9,30.17,East,90,0.0,1.0,100,0.00,,,0.00,WeatherDisplay:10.33,2016-02-06 02:00:00,
2016-02-05 18:15:00,66.8,66.8,30.18,East,90,0.0,0.0,100,0.00,CLR,CLR,0.00,WeatherDisplay:10.33,2016-02-06 02:15:00,
2016-02-05 18:30:00,64.5,64.5,30.19,East,90,0.0,2.0,100,0.00,CLR,CLR,0.00,WeatherDisplay:10.33,2016-02-06 02:30:00,
2016-02-05 18:45:00,63.4,63.4,30.19,East,90,0.0,0.0,100,0.00,CLR,CLR,0.00,WeatherDisplay:10.33,2016-02-06 02:45:00,
2016-02-05 19:15:00,60.4,60.4,30.20,East,90,0.0,0.0,100,0.00,CLR,CLR,0.00,WeatherDisplay:10.33,2016-02-06 03:15:00,
2016-02-05 19:30:00,59.0,59.0,30.19,East,90,0.0,0.0,100,0.00,CLR,CLR,0.00,WeatherDisplay:10.33,2016-02-06 03:30:00,
2016-02-05 20:00:00,57.3,57.3,30.19,East,90,0.0,0.0,100,0.00,CLR,CLR,0.00,WeatherDisplay:10.33,2016-02-06 04:00:00,